LFBT/LDE METAR and TAF weather

Enter ICAO airport designator
Station Type Date Time Source
LFBT METAR 2020/01/20 21:30 UTC NOAA

LFBT 202130Z AUTO VRB03KT CAVOK 01/M03 Q1032


Station Type Date Time Source
LFBT Decoded METAR 2020/01/20 21:30 UTC NOAA

Tarbes Ossun Lourdes, France (LFBT) 43-11N 000-00W 363M
Jan 20, 2020 - 04:30 PM EST / 2020.01.20 2130 UTC
Wind: Variable at 3 MPH (3 KT):0
Visibility: greater than 7 mile(s):0
Temperature: 33 F (1 C)
Dew Point: 26 F (-3 C)
Relative Humidity: 74%
Pressure (altimeter): 30.47 in. Hg (1032 hPa)
ob: LFBT 202130Z AUTO VRB03KT CAVOK 01/M03 Q1032
cycle: 21

Station Type Date Time Source
LFBT TAF 2020/01/20 18:33 UTC NOAA

TAF LFBT 201827Z 2018/2118 CNL

Example: see airport list